createdAt,value
2018-05-09T00:01:25.769Z,5.8
2018-05-09T00:11:26.506Z,6.8
2018-05-09T00:21:26.726Z,7.1
2018-05-09T00:31:26.590Z,6.6
2018-05-09T00:41:26.248Z,7.1
2018-05-09T00:51:27.129Z,6.0
2018-05-09T01:01:26.180Z,7.4
2018-05-09T01:11:25.884Z,7.6
2018-05-09T01:21:27.005Z,7.3
2018-05-09T01:31:26.716Z,7.7
2018-05-09T01:41:26.769Z,8.2
2018-05-09T01:51:26.342Z,8.4
2018-05-09T02:01:27.137Z,8.6
2018-05-09T02:11:29.173Z,10.3
2018-05-09T02:21:26.633Z,9.4
2018-05-09T02:31:25.291Z,8.4
2018-05-09T02:41:28.015Z,10.0
2018-05-09T02:51:27.049Z,9.0
2018-05-09T03:01:26.861Z,10.1
2018-05-09T03:11:27.098Z,9.6
2018-05-09T03:21:25.928Z,8.4
2018-05-09T03:31:26.432Z,10.3
2018-05-09T03:41:26.933Z,10.9
2018-05-09T03:51:26.969Z,10.6
2018-05-09T04:01:26.725Z,11.1
2018-05-09T04:11:26.599Z,10.2
2018-05-09T04:21:26.803Z,10.9
2018-05-09T04:31:26.855Z,9.9
2018-05-09T04:41:26.660Z,9.9
2018-05-09T04:51:26.319Z,10.9
2018-05-09T05:01:26.333Z,10.3
2018-05-09T05:11:25.080Z,11.3
2018-05-09T05:21:26.575Z,10.6
2018-05-09T05:31:27.448Z,15.1
2018-05-09T05:41:26.386Z,11.2
2018-05-09T05:51:25.186Z,10.2
2018-05-09T06:01:26.364Z,11.9
2018-05-09T06:11:26.098Z,14.2
2018-05-09T06:21:25.264Z,11.9
2018-05-09T06:31:24.905Z,8.6
2018-05-09T06:41:26.690Z,12.6
2018-05-09T06:51:26.968Z,10.9
2018-05-09T07:01:28.314Z,10.4
2018-05-09T07:11:26.588Z,11.9
2018-05-09T07:21:25.426Z,9.8
2018-05-09T07:31:26.285Z,10.1
2018-05-09T07:41:25.017Z,12.8
2018-05-09T07:51:26.656Z,11.1
2018-05-09T08:01:26.982Z,15.0
2018-05-09T08:11:26.486Z,10.6
2018-05-09T08:21:26.747Z,9.1
2018-05-09T08:31:25.895Z,7.9
2018-05-09T08:41:26.548Z,7.5
2018-05-09T08:51:26.836Z,8.1
2018-05-09T09:01:26.690Z,6.7
2018-05-09T09:11:31.407Z,7.3
2018-05-09T14:41:31.915Z,5.0
2018-05-09T14:51:31.698Z,4.8
2018-05-09T15:01:31.183Z,5.8
2018-05-09T15:41:31.681Z,5.1
2018-05-09T15:51:31.384Z,4.9
2018-05-09T16:02:06.028Z,5.2
2018-05-09T16:11:32.032Z,5.0
2018-05-09T16:21:58.420Z,4.2
2018-05-09T16:31:31.127Z,3.4
2018-05-09T16:41:25.984Z,6.0
2018-05-09T16:51:25.879Z,6.7
2018-05-09T17:01:26.383Z,5.1
2018-05-09T17:11:26.850Z,4.9
2018-05-09T17:21:25.235Z,5.0
2018-05-09T17:31:26.076Z,5.6
2018-05-09T17:41:25.468Z,6.3
2018-05-09T17:51:26.617Z,6.7
2018-05-09T18:01:26.519Z,7.1
2018-05-09T18:11:25.631Z,7.9
2018-05-09T18:21:25.757Z,9.6
2018-05-09T18:31:26.092Z,8.6
2018-05-09T18:41:25.751Z,6.8
2018-05-09T18:51:26.051Z,6.5
2018-05-09T19:01:25.956Z,6.8
2018-05-09T19:11:25.959Z,6.0
2018-05-09T19:21:27.652Z,6.8
2018-05-09T19:31:26.734Z,6.4
2018-05-09T19:41:26.060Z,6.3
2018-05-09T19:51:25.239Z,7.8
2018-05-09T20:01:24.995Z,7.5
2018-05-09T20:11:27.298Z,6.2
2018-05-09T20:21:26.601Z,6.9
2018-05-09T20:31:26.709Z,8.2
2018-05-09T20:41:26.064Z,7.1
2018-05-09T20:51:25.358Z,7.4
2018-05-09T21:01:26.483Z,8.9
2018-05-09T21:11:25.781Z,8.8
2018-05-09T21:21:26.709Z,9.4
2018-05-09T21:31:26.582Z,8.6
2018-05-09T21:41:27.911Z,9.8
2018-05-09T21:51:26.045Z,9.3
2018-05-09T22:01:27.296Z,8.9
2018-05-09T22:11:26.153Z,8.8
2018-05-09T22:21:26.023Z,8.8
2018-05-09T22:31:26.736Z,8.7
2018-05-09T22:41:26.553Z,8.5
2018-05-09T22:51:25.726Z,7.2
2018-05-09T23:01:26.504Z,7.6
2018-05-09T23:11:27.079Z,8.4
2018-05-09T23:21:26.337Z,11.0
2018-05-09T23:31:27.598Z,10.6
2018-05-09T23:41:25.798Z,10.9
2018-05-09T23:51:26.218Z,14.1
